Airport View

Enter AWOS ICAO identifier for current METAR.

ex. KFNL

KWWR 191235Z AUTO 31005KT 10SM CLR 10/07 A2995 RMK AO2

19 May 2019 12:53

Frequency: 118.425

Phone: 580-254-5217

Other Area AWOS: KGAG - KAVK - KHHF - KPYX

TAF KWWR 191123Z 1912/2012 31008KT P6SM SCT250 FM191800 04007KT P6SM SCT050 FM192300 12009KT P6SM BKN250 FM200600 12013G18KT P6SM BKN100 OVC250 FM201000 12013G20KT P6SM BKN025 OVC100